Time;durP1;ratioP1;P1;durP2;ratioP2;P2;SDS_P1;SDS_P2;PMS_P1;PMS_P2;Temp;Humidity;BMP_temperature;BMP_pressure;BME280_temperature;BME280_humidity;BME280_pressure;Samples;Min_cycle;Max_cycle;Signal;HPM_P1;HPM_P2
2022/09/16 00:00:30;;;;;;;4.57;2.47;;;13.70;99.90;;;;;;5045086;28;20037;-46
2022/09/16 00:02:57;;;;;;;;;;;13.70;99.90;;;;;;5052831;28;20131;-46
2022/09/16 00:05:25;;;;;;;6.50;3.40;;;13.70;99.90;;;;;;5051654;28;19921;-46
2022/09/16 00:07:53;;;;;;;4.53;2.85;;;13.70;99.90;;;;;;5046359;28;20520;-46
2022/09/16 00:10:20;;;;;;;5.78;2.78;;;13.70;99.90;;;;;;5051332;28;20076;-46
2022/09/16 00:12:47;;;;;;;;;;;13.70;99.90;;;;;;5052405;28;20586;-45
2022/09/16 00:15:14;;;;;;;3.95;2.60;;;13.70;99.90;;;;;;5042916;28;20011;-46
2022/09/16 00:17:41;;;;;;;4.95;2.65;;;13.70;99.90;;;;;;5051818;28;20087;-46
2022/09/16 00:20:08;;;;;;;11.18;2.75;;;13.70;99.90;;;;;;5051952;28;20064;-45
2022/09/16 00:22:35;;;;;;;6.50;3.20;;;13.60;99.90;;;;;;5045594;28;20127;-47
2022/09/16 00:25:02;;;;;;;4.15;2.90;;;13.60;99.90;;;;;;5051026;28;20166;-46
2022/09/16 00:27:29;;;;;;;5.57;2.90;;;13.60;99.90;;;;;;5050609;28;20518;-46
2022/09/16 00:29:55;;;;;;;4.05;2.85;;;13.60;99.90;;;;;;5046022;28;20609;-46
2022/09/16 00:32:23;;;;;;;4.82;2.70;;;13.60;99.90;;;;;;5044656;28;20485;-47
2022/09/16 00:34:51;;;;;;;5.05;3.22;;;13.50;99.90;;;;;;5051186;28;20095;-46
2022/09/16 00:37:18;;;;;;;;;;;13.60;99.90;;;;;;5051739;28;20064;-46
2022/09/16 00:39:48;;;;;;;5.57;3.38;;;13.50;99.90;;;;;;5050987;28;20015;-48
2022/09/16 00:42:16;;;;;;;11.85;3.60;;;13.50;99.90;;;;;;5040156;28;20068;-47
2022/09/16 00:45:13;;;;;;;4.32;3.05;;;13.40;99.90;;;;;;5049232;28;20738;-47
2022/09/16 00:47:51;;;;;;;4.38;2.88;;;13.40;99.90;;;;;;5028330;28;20053;-47
2022/09/16 00:50:29;;;;;;;4.35;3.22;;;13.40;99.90;;;;;;5050902;28;20076;-46
2022/09/16 00:52:58;;;;;;;6.57;3.53;;;13.30;99.90;;;;;;5045472;28;20075;-46
2022/09/16 00:55:29;;;;;;;6.57;3.30;;;13.30;99.90;;;;;;5050719;28;20128;-47
2022/09/16 00:58:03;;;;;;;4.40;3.25;;;13.20;99.90;;;;;;5050161;28;20503;-46
2022/09/16 01:00:30;;;;;;;4.88;2.92;;;13.10;99.90;;;;;;5042792;28;20062;-46
2022/09/16 01:02:57;;;;;;;6.50;3.28;;;13.10;99.90;;;;;;5046490;28;20041;-46
2022/09/16 01:05:25;;;;;;;11.95;3.53;;;13.10;99.90;;;;;;5049733;28;20144;-46
2022/09/16 01:07:53;;;;;;;8.43;3.58;;;13.10;99.90;;;;;;5051172;28;20060;-46
2022/09/16 01:10:24;;;;;;;4.53;3.33;;;13.10;99.90;;;;;;5045580;28;20040;-46
2022/09/16 01:12:55;;;;;;;6.43;3.45;;;13.20;99.90;;;;;;5050866;28;20120;-46
2022/09/16 01:15:30;;;;;;;6.55;3.45;;;13.20;99.90;;;;;;5049103;28;20457;-47
2022/09/16 01:18:09;;;;;;;6.30;3.50;;;13.20;99.90;;;;;;5047554;28;20030;-46
2022/09/16 01:20:57;;;;;;;4.70;3.45;;;13.20;99.90;;;;;;5042881;28;20144;-46
2022/09/16 01:23:39;;;;;;;9.07;3.72;;;13.10;99.90;;;;;;5049653;28;20069;-48
2022/09/16 01:26:27;;;;;;;6.70;3.22;;;13.10;99.90;;;;;;5045972;28;20460;-46
2022/09/16 01:29:03;;;;;;;8.80;3.57;;;13.00;99.90;;;;;;5030365;28;20069;-48
2022/09/16 01:31:37;;;;;;;7.05;3.28;;;13.00;99.90;;;;;;5031161;28;20073;-46
2022/09/16 01:34:25;;;;;;;6.25;3.20;;;13.00;99.90;;;;;;5030478;28;20042;-46
2022/09/16 01:37:02;;;;;;;6.40;3.45;;;12.90;99.90;;;;;;5046000;28;20120;-46
2022/09/16 01:39:42;;;;;;;4.78;3.17;;;12.90;99.90;;;;;;5050437;28;20072;-46
2022/09/16 01:42:28;;;;;;;7.35;3.40;;;12.90;99.90;;;;;;5053951;28;20077;-47
2022/09/16 01:45:10;;;;;;;5.55;3.58;;;12.90;99.90;;;;;;5047414;28;20068;-46
2022/09/16 01:47:53;;;;;;;7.28;3.88;;;13.00;99.90;;;;;;5054891;28;20080;-48
2022/09/16 01:50:24;;;;;;;10.98;4.00;;;13.00;99.90;;;;;;5048703;28;20049;-46
2022/09/16 01:52:56;;;;;;;5.90;3.58;;;12.90;99.90;;;;;;5054709;28;20119;-46
2022/09/16 01:55:37;;;;;;;5.53;3.65;;;13.00;99.90;;;;;;5054620;28;20143;-46
2022/09/16 01:58:24;;;;;;;8.52;3.72;;;13.00;99.90;;;;;;5046256;28;20128;-46
2022/09/16 02:00:54;;;;;;;5.00;3.13;;;13.00;99.90;;;;;;5034774;28;20103;-46
2022/09/16 02:03:27;;;;;;;6.00;3.67;;;12.90;99.90;;;;;;5052950;28;20114;-46
2022/09/16 02:05:59;;;;;;;6.93;4.25;;;12.90;99.90;;;;;;5048856;28;20072;-46
2022/09/16 02:08:33;;;;;;;7.50;3.75;;;12.90;99.90;;;;;;5054543;28;20543;-46
2022/09/16 02:11:05;;;;;;;8.57;4.35;;;12.90;99.90;;;;;;5053548;28;20071;-46
2022/09/16 02:13:36;;;;;;;7.78;4.03;;;13.00;99.90;;;;;;5051295;28;20064;-46
2022/09/16 02:16:12;;;;;;;7.05;4.13;;;13.00;99.90;;;;;;5050692;28;20095;-46
2022/09/16 02:18:41;;;;;;;8.90;4.28;;;13.00;99.90;;;;;;5054508;28;20045;-47
2022/09/16 02:21:13;;;;;;;6.63;4.18;;;13.00;99.90;;;;;;5048203;28;20124;-47
2022/09/16 02:23:45;;;;;;;8.93;3.50;;;13.00;99.90;;;;;;5042222;28;20061;-46
2022/09/16 02:26:18;;;;;;;7.65;3.80;;;13.00;99.90;;;;;;5033159;28;20482;-48
2022/09/16 02:28:47;;;;;;;8.63;4.10;;;12.90;99.90;;;;;;5034352;28;20087;-46
2022/09/16 02:31:17;;;;;;;16.50;4.40;;;12.90;99.90;;;;;;5051196;28;20473;-46
2022/09/16 02:33:46;;;;;;;8.30;4.10;;;12.90;99.90;;;;;;5048441;28;20041;-46
2022/09/16 02:36:18;;;;;;;8.23;4.13;;;12.80;99.90;;;;;;5053986;28;20107;-46
2022/09/16 02:38:52;;;;;;;8.20;4.40;;;12.80;99.90;;;;;;5053705;28;20071;-46
2022/09/16 02:41:19;;;;;;;7.72;4.10;;;12.80;99.90;;;;;;5053713;28;20091;-49
2022/09/16 02:43:46;;;;;;;9.75;4.40;;;12.90;99.90;;;;;;5042407;28;20070;-47
2022/09/16 02:46:21;;;;;;;9.20;4.30;;;12.80;99.90;;;;;;5051192;28;20072;-46
2022/09/16 02:49:10;;;;;;;9.32;4.57;;;12.80;99.90;;;;;;5052607;28;20140;-47
2022/09/16 02:51:42;;;;;;;7.60;4.18;;;12.80;99.90;;;;;;5053211;28;20073;-46
2022/09/16 02:54:15;;;;;;;8.93;4.60;;;12.90;99.90;;;;;;5047255;28;20456;-46
2022/09/16 02:56:42;;;;;;;8.52;4.20;;;12.90;99.90;;;;;;5053815;28;20455;-47
2022/09/16 02:59:11;;;;;;;10.80;4.05;;;12.90;99.90;;;;;;5053532;28;20079;-46
2022/09/16 03:01:44;;;;;;;6.88;4.38;;;12.90;99.90;;;;;;5041906;28;20041;-46
2022/09/16 03:04:14;;;;;;;7.43;3.92;;;13.10;99.90;;;;;;5048928;28;20041;-46
2022/09/16 03:06:41;;;;;;;14.18;4.30;;;13.00;99.90;;;;;;5052199;28;20076;-47
2022/09/16 03:09:11;;;;;;;6.65;4.07;;;13.00;99.90;;;;;;5053454;28;20045;-46
2022/09/16 03:12:02;;;;;;;6.93;4.20;;;13.00;99.90;;;;;;5048385;28;20037;-46
2022/09/16 03:14:54;;;;;;;5.78;4.38;;;13.00;99.90;;;;;;5053060;28;20041;-46
2022/09/16 03:17:49;;;;;;;8.38;4.60;;;13.00;99.90;;;;;;5045701;28;20069;-47
2022/09/16 03:20:25;;;;;;;8.00;4.88;;;13.10;99.90;;;;;;5041333;28;20069;-46
2022/09/16 03:22:55;;;;;;;9.25;4.00;;;13.10;99.90;;;;;;5032517;28;20083;-46
2022/09/16 03:25:41;;;;;;;6.00;4.18;;;13.10;99.90;;;;;;5032655;28;20149;-48
2022/09/16 03:28:39;;;;;;;6.15;4.03;;;13.10;99.90;;;;;;5049842;28;20072;-48
2022/09/16 03:31:21;;;;;;;7.60;4.65;;;13.10;99.90;;;;;;4964914;28;20083;-46
2022/09/16 03:34:12;;;;;;;5.68;3.70;;;13.00;99.90;;;;;;5046491;28;20091;-47
2022/09/16 03:36:44;;;;;;;7.72;4.03;;;12.90;99.90;;;;;;5052588;28;20041;-47
2022/09/16 03:39:12;;;;;;;9.20;5.05;;;12.90;99.90;;;;;;5052289;28;20069;-48
2022/09/16 03:41:39;;;;;;;9.65;4.18;;;12.90;99.90;;;;;;5051603;28;20060;-46
2022/09/16 03:44:06;;;;;;;;;;;12.90;99.90;;;;;;5051254;28;20123;-46
2022/09/16 03:46:33;;;;;;;8.00;3.75;;;12.90;99.90;;;;;;5040549;28;19987;-46
2022/09/16 03:49:00;;;;;;;9.85;5.03;;;12.90;99.90;;;;;;5046147;28;20395;-46
2022/09/16 03:51:27;;;;;;;8.60;5.03;;;12.90;99.90;;;;;;5051994;28;20075;-46
2022/09/16 03:53:54;;;;;;;12.05;4.90;;;12.90;99.90;;;;;;5051926;28;20072;-46
2022/09/16 03:56:23;;;;;;;7.60;4.28;;;12.90;99.90;;;;;;5045415;28;20072;-46
2022/09/16 03:58:49;;;;;;;6.00;4.28;;;12.90;99.90;;;;;;5052500;28;20114;-47
2022/09/16 04:01:16;;;;;;;9.13;4.88;;;12.80;99.90;;;;;;5046851;28;20079;-47
2022/09/16 04:03:43;;;;;;;7.50;4.72;;;12.90;99.90;;;;;;5051174;28;20045;-46
2022/09/16 04:06:10;;;;;;;10.23;4.50;;;12.90;99.90;;;;;;5051844;28;20133;-46
2022/09/16 04:08:38;;;;;;;7.78;5.22;;;12.90;99.90;;;;;;5049703;28;20049;-47
2022/09/16 04:11:05;;;;;;;9.45;4.78;;;12.90;99.90;;;;;;5048685;28;20072;-46
2022/09/16 04:13:33;;;;;;;8.40;5.45;;;12.90;99.90;;;;;;5046888;28;20472;-46
2022/09/16 04:16:02;;;;;;;10.85;5.65;;;12.80;99.90;;;;;;5047661;28;20117;-47
2022/09/16 04:18:31;;;;;;;7.15;4.90;;;12.80;99.90;;;;;;5051430;28;20071;-48
2022/09/16 04:20:58;;;;;;;8.18;4.80;;;12.80;99.90;;;;;;5033130;28;20390;-46
2022/09/16 04:23:27;;;;;;;11.73;5.47;;;12.80;99.90;;;;;;5051117;28;20056;-46
2022/09/16 04:25:58;;;;;;;8.63;4.65;;;12.90;99.90;;;;;;5046697;28;20053;-46
2022/09/16 04:28:25;;;;;;;7.80;4.82;;;12.90;99.90;;;;;;5046388;28;20548;-46
2022/09/16 04:30:53;;;;;;;9.18;5.40;;;12.90;99.90;;;;;;5051749;28;20076;-46
2022/09/16 04:33:19;;;;;;;11.07;6.43;;;12.90;99.90;;;;;;5051309;28;20047;-46
2022/09/16 04:35:46;;;;;;;8.73;4.97;;;13.00;99.90;;;;;;5051624;28;20044;-46
2022/09/16 04:38:13;;;;;;;9.15;5.35;;;13.00;99.90;;;;;;5045471;28;20036;-46
2022/09/16 04:40:40;;;;;;;7.30;4.88;;;13.00;99.90;;;;;;5032716;28;20090;-46
2022/09/16 04:43:06;;;;;;;8.98;5.53;;;12.90;99.90;;;;;;5051651;28;20091;-46
2022/09/16 04:45:33;;;;;;;9.80;4.95;;;12.90;99.90;;;;;;5044441;28;20029;-46
2022/09/16 04:48:00;;;;;;;8.68;4.85;;;12.90;99.90;;;;;;5051259;28;20072;-46
2022/09/16 04:50:27;;;;;;;10.82;4.95;;;12.90;99.90;;;;;;5051002;28;20087;-46
2022/09/16 04:52:53;;;;;;;6.65;4.90;;;12.90;99.90;;;;;;5047259;28;20041;-46
2022/09/16 04:55:23;;;;;;;7.05;4.95;;;12.90;99.90;;;;;;5051014;28;20120;-46
2022/09/16 04:57:51;;;;;;;7.13;4.85;;;12.90;99.90;;;;;;5045141;28;20176;-46
2022/09/16 05:00:17;;;;;;;9.88;5.88;;;12.80;99.90;;;;;;5049307;28;20072;-46
2022/09/16 05:02:44;;;;;;;8.77;4.80;;;12.80;99.90;;;;;;5044745;28;20497;-46
2022/09/16 05:05:12;;;;;;;8.07;5.25;;;12.80;99.90;;;;;;5049713;28;20049;-46
2022/09/16 05:07:38;;;;;;;8.80;5.20;;;12.80;99.90;;;;;;5051097;28;20555;-47
2022/09/16 05:10:05;;;;;;;14.65;5.80;;;12.90;99.90;;;;;;5046544;28;20072;-47
2022/09/16 05:12:32;;;;;;;11.27;5.47;;;12.90;99.90;;;;;;5034659;28;20041;-46
2022/09/16 05:14:59;;;;;;;8.65;5.40;;;12.90;99.90;;;;;;5049734;28;20069;-46
2022/09/16 05:17:29;;;;;;;11.32;6.03;;;12.90;99.90;;;;;;5049850;28;20073;-47
2022/09/16 05:20:16;;;;;;;13.20;6.65;;;12.90;99.90;;;;;;5037827;28;20043;-47
2022/09/16 05:22:43;;;;;;;11.85;5.70;;;13.00;99.90;;;;;;5039310;28;20045;-46
2022/09/16 05:25:10;;;;;;;13.15;6.50;;;13.00;99.90;;;;;;5038560;28;20095;-48
2022/09/16 05:27:37;;;;;;;12.63;6.35;;;12.90;99.90;;;;;;5042478;28;20128;-46
2022/09/16 05:30:04;;;;;;;12.77;6.60;;;12.90;99.90;;;;;;5044225;28;20067;-46
2022/09/16 05:32:31;;;;;;;11.40;6.30;;;12.90;99.90;;;;;;5050360;28;20061;-48
2022/09/16 05:34:58;;;;;;;12.88;7.43;;;12.90;99.90;;;;;;5049389;28;20611;-46
2022/09/16 05:37:25;;;;;;;13.45;6.72;;;12.90;99.90;;;;;;5047959;28;20069;-47
2022/09/16 05:39:52;;;;;;;18.42;7.15;;;12.80;99.90;;;;;;5057884;22;20084;-46
2022/09/16 05:42:47;;;;;;;12.15;7.60;;;12.80;99.90;;;;;;5038967;28;20098;-49
2022/09/16 05:45:14;;;;;;;9.20;6.55;;;12.90;99.90;;;;;;5023524;28;20543;-46
2022/09/16 05:47:40;;;;;;;16.58;7.80;;;12.90;99.90;;;;;;5043249;28;20065;-46
2022/09/16 05:50:07;;;;;;;12.68;6.90;;;12.90;99.90;;;;;;5030186;28;20041;-47
2022/09/16 05:52:34;;;;;;;13.27;6.80;;;13.00;99.90;;;;;;5030202;28;20079;-46
2022/09/16 05:55:01;;;;;;;8.35;6.38;;;13.00;99.90;;;;;;5030478;28;20495;-46
2022/09/16 05:57:27;;;;;;;11.15;6.85;;;13.10;99.90;;;;;;5030682;28;20088;-46
2022/09/16 05:59:54;;;;;;;11.85;6.32;;;13.10;99.90;;;;;;5032720;28;20124;-46
2022/09/16 06:02:21;;;;;;;20.90;6.80;;;13.10;99.90;;;;;;5030545;28;20045;-48
2022/09/16 06:04:48;;;;;;;11.20;6.43;;;13.10;99.90;;;;;;5037694;28;20038;-45
2022/09/16 06:07:16;;;;;;;12.40;6.43;;;13.10;99.90;;;;;;5031053;28;20069;-48
2022/09/16 06:09:43;;;;;;;9.50;5.75;;;13.10;99.90;;;;;;5029917;28;20072;-46
2022/09/16 06:12:09;;;;;;;12.60;6.57;;;13.10;99.90;;;;;;5047560;28;20069;-46
2022/09/16 06:14:36;;;;;;;14.20;7.13;;;13.10;99.90;;;;;;5032378;28;20409;-47
2022/09/16 06:17:03;;;;;;;9.82;5.40;;;13.10;99.90;;;;;;5037761;28;20076;-46
2022/09/16 06:19:29;;;;;;;10.35;6.30;;;13.10;99.90;;;;;;5030572;28;20487;-46
2022/09/16 06:21:56;;;;;;;9.80;5.78;;;13.00;99.90;;;;;;5044978;28;20040;-46
2022/09/16 06:24:23;;;;;;;10.63;6.60;;;13.00;99.90;;;;;;5049302;28;20115;-45
2022/09/16 06:26:50;;;;;;;9.63;6.30;;;13.00;99.90;;;;;;5034208;28;20077;-45
2022/09/16 06:29:17;;;;;;;11.52;6.20;;;13.10;99.90;;;;;;5034235;28;20510;-46
2022/09/16 06:31:43;;;;;;;12.23;6.43;;;13.00;99.90;;;;;;5047018;28;20120;-46
2022/09/16 06:34:15;;;;;;;10.95;5.95;;;13.10;99.90;;;;;;5052985;28;20041;-45
2022/09/16 06:36:42;;;;;;;9.57;6.22;;;13.10;99.90;;;;;;5049560;28;20123;-45
2022/09/16 06:39:12;;;;;;;9.95;6.00;;;13.10;99.90;;;;;;5053452;28;20520;-45
2022/09/16 06:41:39;;;;;;;8.02;5.53;;;13.10;99.90;;;;;;5051917;28;20062;-47
2022/09/16 06:44:06;;;;;;;8.38;5.53;;;13.10;99.90;;;;;;5047618;28;20075;-47
2022/09/16 06:46:33;;;;;;;9.60;5.43;;;13.10;99.90;;;;;;5031916;28;20480;-49
2022/09/16 06:48:59;;;;;;;11.82;6.30;;;13.10;99.90;;;;;;5052080;28;20041;-47
2022/09/16 06:51:31;;;;;;;8.00;5.38;;;13.20;99.90;;;;;;5053250;28;20116;-47
2022/09/16 06:54:01;;;;;;;12.50;5.88;;;13.20;99.90;;;;;;5047672;28;20551;-47
2022/09/16 06:56:27;;;;;;;12.63;5.97;;;13.20;99.90;;;;;;5049049;28;20041;-47
2022/09/16 06:58:54;;;;;;;11.13;6.07;;;13.40;99.90;;;;;;5046815;28;20060;-50
2022/09/16 07:01:24;;;;;;;9.18;6.07;;;13.50;99.90;;;;;;5045358;28;20033;-47
2022/09/16 07:03:53;;;;;;;12.20;5.32;;;13.50;99.90;;;;;;5049347;28;20071;-48
2022/09/16 07:06:21;;;;;;;10.65;6.00;;;13.60;99.90;;;;;;5052892;28;20033;-47
2022/09/16 07:09:05;;;;;;;9.70;6.30;;;13.50;99.90;;;;;;5051516;28;20485;-47
2022/09/16 07:11:32;;;;;;;9.20;5.78;;;13.60;99.90;;;;;;5042028;28;20099;-47
2022/09/16 07:13:59;;;;;;;11.02;5.72;;;13.70;99.90;;;;;;5049532;28;20114;-47
2022/09/16 07:16:25;;;;;;;7.75;4.97;;;13.70;99.90;;;;;;5052770;28;20095;-47
2022/09/16 07:18:54;;;;;;;6.10;4.38;;;13.70;99.90;;;;;;5052912;28;20517;-47
2022/09/16 07:21:29;;;;;;;8.10;4.72;;;13.80;99.90;;;;;;5038983;28;20051;-47
2022/09/16 07:24:00;;;;;;;10.50;4.85;;;13.90;99.90;;;;;;5044074;28;20060;-47
2022/09/16 07:26:29;;;;;;;11.98;5.07;;;13.90;99.90;;;;;;5048437;28;20072;-47
2022/09/16 07:28:59;;;;;;;8.98;4.75;;;13.90;99.90;;;;;;5048839;28;20110;-47
2022/09/16 07:31:30;;;;;;;5.70;4.35;;;14.10;99.90;;;;;;5030722;28;20073;-47
2022/09/16 07:34:00;;;;;;;7.30;4.38;;;14.20;99.90;;;;;;5050280;28;20037;-47
2022/09/16 07:36:37;;;;;;;8.52;4.97;;;14.30;99.90;;;;;;5052242;28;20047;-47
2022/09/16 07:39:04;;;;;;;11.20;5.20;;;14.40;99.90;;;;;;5053092;28;20084;-47
2022/09/16 07:41:33;;;;;;;7.28;4.53;;;14.40;99.90;;;;;;5032350;28;20091;-47
2022/09/16 07:44:01;;;;;;;7.40;5.20;;;14.50;99.90;;;;;;5031884;28;20077;-44
2022/09/16 07:46:30;;;;;;;7.82;4.85;;;14.50;99.90;;;;;;5031600;28;20071;-48
2022/09/16 07:48:59;;;;;;;8.27;5.40;;;14.60;99.90;;;;;;5049508;28;20775;-48
2022/09/16 07:51:27;;;;;;;10.18;4.93;;;14.60;99.90;;;;;;5051086;28;20041;-48
2022/09/16 07:53:58;;;;;;;8.63;5.55;;;14.60;99.90;;;;;;5051914;28;20503;-46
2022/09/16 07:56:27;;;;;;;9.85;5.38;;;14.70;99.90;;;;;;5045817;28;20073;-45
2022/09/16 07:58:55;;;;;;;11.90;6.22;;;14.80;99.90;;;;;;5044170;28;20049;-46
2022/09/16 08:01:23;;;;;;;8.52;5.88;;;14.80;99.90;;;;;;5042076;28;20121;-45
2022/09/16 08:03:50;;;;;;;13.00;6.15;;;14.90;99.90;;;;;;5031925;28;20052;-46
2022/09/16 08:06:19;;;;;;;12.23;5.63;;;14.90;99.90;;;;;;5033350;28;20041;-47
2022/09/16 08:08:47;;;;;;;9.52;5.10;;;15.00;99.90;;;;;;5043755;28;20250;-49
2022/09/16 08:11:14;;;;;;;8.30;5.07;;;15.00;99.90;;;;;;5052280;28;20032;-48
2022/09/16 08:13:42;;;;;;;8.43;5.80;;;15.10;99.90;;;;;;5051989;28;20072;-46
2022/09/16 08:16:12;;;;;;;7.75;4.20;;;15.20;99.90;;;;;;5041892;28;20041;-45
2022/09/16 08:18:39;;;;;;;6.50;4.72;;;15.00;99.90;;;;;;5032046;28;20061;-46
2022/09/16 08:21:10;;;;;;;;;;;15.20;99.90;;;;;;5032296;28;20037;-45
2022/09/16 08:23:37;;;;;;;5.68;3.70;;;15.10;99.90;;;;;;5014361;28;19925;-46
2022/09/16 08:26:07;;;;;;;7.78;4.20;;;15.10;99.90;;;;;;5031920;28;20037;-48
2022/09/16 08:28:34;;;;;;;6.28;4.18;;;15.10;99.90;;;;;;5039879;28;20422;-46
2022/09/16 08:31:17;;;;;;;6.85;3.67;;;15.10;99.90;;;;;;5038473;28;20053;-48
2022/09/16 08:33:45;;;;;;;7.07;3.60;;;15.30;99.90;;;;;;5049829;28;20119;-52
2022/09/16 08:36:22;;;;;;;5.30;3.58;;;15.40;99.90;;;;;;5051430;28;20448;-46
2022/09/16 08:38:52;;;;;;;4.80;3.20;;;15.50;99.90;;;;;;5042730;28;20091;-48
2022/09/16 08:41:50;;;;;;;6.78;3.40;;;15.60;99.90;;;;;;5049354;28;20497;-47
2022/09/16 08:44:29;;;;;;;3.95;3.00;;;15.80;99.90;;;;;;5047734;28;20076;-46
2022/09/16 08:47:00;;;;;;;4.38;2.85;;;15.70;99.90;;;;;;5048881;28;20044;-46
2022/09/16 08:49:40;;;;;;;5.45;3.50;;;15.70;99.90;;;;;;5050494;28;20045;-46
2022/09/16 08:52:21;;;;;;;6.40;4.10;;;15.80;99.90;;;;;;5029966;28;20759;-46
2022/09/16 08:54:56;;;;;;;7.15;3.92;;;16.00;99.90;;;;;;5042427;28;20041;-46
2022/09/16 08:57:28;;;;;;;7.88;4.50;;;16.00;99.90;;;;;;5020211;28;20037;-47
2022/09/16 09:00:03;;;;;;;9.02;4.70;;;16.10;99.90;;;;;;5032086;28;20453;-46
2022/09/16 09:02:46;;;;;;;6.85;4.50;;;16.00;99.90;;;;;;5045081;28;20083;-47
2022/09/16 09:05:49;;;;;;;7.07;3.10;;;16.00;99.90;;;;;;5048097;28;20116;-46
2022/09/16 09:08:22;;;;;;;4.63;3.30;;;15.90;99.90;;;;;;5050158;28;20489;-46
2022/09/16 09:10:59;;;;;;;3.95;2.70;;;16.00;99.90;;;;;;5041500;28;20481;-48
2022/09/16 09:13:43;;;;;;;5.27;2.80;;;16.30;99.90;;;;;;5035070;28;20429;-46
2022/09/16 09:16:52;;;;;;;5.95;3.10;;;16.40;99.90;;;;;;5037813;28;20095;-46
2022/09/16 09:19:52;;;;;;;4.68;3.03;;;16.60;99.90;;;;;;4966418;28;20083;-45
2022/09/16 09:22:41;;;;;;;6.07;3.50;;;16.90;99.90;;;;;;5030706;28;20037;-46
2022/09/16 09:25:32;;;;;;;5.75;3.58;;;16.90;99.90;;;;;;5039102;28;20405;-46
2022/09/16 09:28:35;;;;;;;4.90;3.03;;;16.90;99.90;;;;;;5034193;28;20045;-48
2022/09/16 09:31:14;;;;;;;3.90;2.78;;;17.10;99.90;;;;;;5037167;28;20103;-46
2022/09/16 09:34:03;;;;;;;5.40;2.75;;;17.40;99.90;;;;;;5040003;28;20493;-46
2022/09/16 09:37:07;;;;;;;9.13;4.35;;;17.60;99.90;;;;;;5048619;28;20045;-46
2022/09/16 09:39:49;;;;;;;4.82;3.45;;;17.70;99.90;;;;;;5051034;28;20045;-46
2022/09/16 09:42:28;;;;;;;4.30;3.17;;;17.60;99.90;;;;;;5044280;28;20045;-47
2022/09/16 09:45:19;;;;;;;4.60;3.72;;;17.50;99.90;;;;;;5030263;28;20052;-46
2022/09/16 09:48:12;;;;;;;6.82;3.60;;;17.50;99.90;;;;;;5042936;28;20091;-46
2022/09/16 09:50:42;;;;;;;5.80;3.60;;;17.70;99.90;;;;;;5032102;28;20053;-47
2022/09/16 09:53:27;;;;;;;4.43;3.65;;;18.10;99.90;;;;;;5048391;28;20482;-48
2022/09/16 09:56:03;;;;;;;8.90;3.33;;;18.30;99.90;;;;;;5050282;28;20041;-46
2022/09/16 09:58:59;;;;;;;6.65;3.45;;;18.50;99.90;;;;;;5045049;28;20083;-46
2022/09/16 10:01:26;;;;;;;7.80;3.20;;;18.60;99.90;;;;;;4999405;28;20057;-46
2022/09/16 10:03:56;;;;;;;4.70;3.17;;;19.00;99.90;;;;;;5034420;28;20056;-46
2022/09/16 10:06:29;;;;;;;3.83;2.67;;;19.20;99.90;;;;;;5034402;28;20125;-47
2022/09/16 10:08:57;;;;;;;4.53;3.20;;;19.20;99.90;;;;;;5041420;28;20115;-46
2022/09/16 10:11:27;;;;;;;5.07;3.08;;;19.10;99.90;;;;;;5046040;28;20037;-48
2022/09/16 10:13:59;;;;;;;4.07;2.90;;;18.90;99.90;;;;;;5034022;28;20080;-52
2022/09/16 10:16:36;;;;;;;7.93;2.90;;;18.80;99.90;;;;;;5017569;28;20414;-49
2022/09/16 10:19:17;;;;;;;4.97;3.20;;;18.90;99.90;;;;;;5032847;28;20095;-47
2022/09/16 10:22:09;;;;;;;4.10;3.00;;;18.90;99.90;;;;;;5049753;28;20040;-53
2022/09/16 10:24:53;;;;;;;3.50;2.60;;;18.80;99.90;;;;;;5051822;28;20390;-46
2022/09/16 10:27:27;;;;;;;5.90;2.80;;;18.80;99.90;;;;;;5044380;28;20542;-46
2022/09/16 10:30:08;;;;;;;7.13;3.22;;;18.90;99.90;;;;;;5034052;28;20069;-46
2022/09/16 10:32:50;;;;;;;5.80;3.92;;;18.90;99.90;;;;;;5032790;28;20421;-47
2022/09/16 10:35:24;;;;;;;6.53;3.80;;;19.00;99.90;;;;;;5035047;28;20124;-47
2022/09/16 10:38:20;;;;;;;4.53;3.47;;;19.00;99.90;;;;;;5039034;28;20128;-46
2022/09/16 10:40:52;;;;;;;5.43;3.83;;;18.90;99.90;;;;;;5047345;28;20087;-47
2022/09/16 10:43:20;;;;;;;6.57;3.83;;;18.90;99.90;;;;;;5051882;28;20143;-47
2022/09/16 10:45:50;;;;;;;7.75;4.88;;;18.90;99.90;;;;;;5053517;28;20484;-46
2022/09/16 10:48:19;;;;;;;10.30;4.53;;;18.80;99.90;;;;;;5034819;28;20037;-46
2022/09/16 10:50:56;;;;;;;10.10;4.47;;;18.80;99.90;;;;;;5033699;28;20076;-46
2022/09/16 10:53:36;;;;;;;6.40;4.28;;;19.00;99.90;;;;;;5039861;28;20394;-48
2022/09/16 10:56:16;;;;;;;7.35;4.22;;;19.20;99.90;;;;;;5033492;28;20559;-46
2022/09/16 10:58:43;;;;;;;6.82;4.60;;;19.40;99.90;;;;;;5033347;28;20073;-47
2022/09/16 11:01:18;;;;;;;6.95;4.45;;;19.60;99.90;;;;;;5040382;28;20041;-46
2022/09/16 11:04:27;;;;;;;11.77;5.00;;;19.60;99.90;;;;;;5046536;28;20460;-46
2022/09/16 11:07:20;;;;;;;7.50;5.00;;;19.40;99.90;;;;;;5053256;28;20065;-46
2022/09/16 11:10:26;;;;;;;8.88;4.93;;;19.30;99.90;;;;;;5049794;28;20087;-46
2022/09/16 11:13:16;;;;;;;4.68;3.65;;;19.20;99.90;;;;;;5044787;28;20065;-47
2022/09/16 11:16:20;;;;;;;6.32;3.30;;;19.10;99.90;;;;;;5039576;28;20112;-48
2022/09/16 11:19:10;;;;;;;5.50;3.20;;;19.00;99.90;;;;;;5051746;28;20454;-47
2022/09/16 11:22:15;;;;;;;4.70;2.75;;;19.00;99.90;;;;;;5041194;28;20069;-46
2022/09/16 11:25:01;;;;;;;6.65;3.03;;;19.10;99.90;;;;;;5031493;28;20068;-46
2022/09/16 11:27:49;;;;;;;6.55;3.28;;;19.00;99.90;;;;;;5032861;28;20073;-47
2022/09/16 11:30:23;;;;;;;8.18;4.88;;;18.80;99.90;;;;;;5032650;28;20049;-46
2022/09/16 11:33:35;;;;;;;8.88;4.95;;;18.60;99.90;;;;;;5038610;28;20129;-49
2022/09/16 11:36:08;;;;;;;9.00;6.65;;;18.50;99.90;;;;;;5047122;28;20084;-48
2022/09/16 11:38:57;;;;;;;14.85;6.85;;;18.40;99.90;;;;;;5033031;28;20061;-46
2022/09/16 11:46:02;;;;;;;13.30;7.63;;;17.80;99.90;;;;;;5045357;28;19916;-48
2022/09/16 11:48:51;;;;;;;19.05;8.32;;;17.40;99.90;;;;;;5010874;28;20049;-48
2022/09/16 11:51:40;;;;;;;14.98;8.27;;;17.10;99.90;;;;;;5051194;28;20102;-48
2022/09/16 11:54:29;;;;;;;15.43;8.65;;;16.80;99.90;;;;;;5044070;28;20037;-48
2022/09/16 11:56:57;;;;;;;;;;;16.40;99.90;;;;;;5051073;28;20041;-49
2022/09/16 11:59:33;;;;;;;16.08;8.52;;;15.90;99.90;;;;;;5052449;28;19920;-48
2022/09/16 12:02:14;;;;;;;16.40;9.15;;;15.60;99.90;;;;;;5046487;28;20077;-48
2022/09/16 12:04:58;;;;;;;19.63;9.20;;;15.50;99.90;;;;;;5045127;28;20041;-48
2022/09/16 12:07:38;;;;;;;16.98;9.98;;;15.50;99.90;;;;;;5051961;28;20079;-49
2022/09/16 12:10:15;;;;;;;15.93;8.20;;;15.90;99.90;;;;;;5044236;28;20103;-48
2022/09/16 12:12:48;;;;;;;12.02;8.18;;;16.20;99.90;;;;;;5044638;28;20124;-50
2022/09/16 12:15:28;;;;;;;14.20;8.60;;;16.50;99.90;;;;;;5051598;28;20072;-48
2022/09/16 12:18:00;;;;;;;14.40;8.77;;;16.70;99.90;;;;;;5052077;28;20111;-48
2022/09/16 12:20:35;;;;;;;14.55;8.65;;;17.00;99.90;;;;;;5048866;28;20045;-49
2022/09/16 12:23:23;;;;;;;18.70;9.43;;;17.20;99.90;;;;;;5025014;28;20466;-48
2022/09/16 12:26:09;;;;;;;17.05;9.77;;;17.40;99.90;;;;;;5049637;28;20517;-48
2022/09/16 12:28:44;;;;;;;18.27;8.80;;;17.60;99.90;;;;;;5051478;28;20136;-48
2022/09/16 12:31:13;;;;;;;18.63;9.10;;;17.70;99.90;;;;;;5043866;28;20073;-52
2022/09/16 12:33:49;;;;;;;16.63;9.00;;;17.90;99.90;;;;;;5048961;28;20098;-48
2022/09/16 12:36:24;;;;;;;12.18;7.22;;;17.90;99.90;;;;;;5050047;28;20044;-48
2022/09/16 12:38:51;;;;;;;11.50;6.63;;;18.10;99.90;;;;;;5051461;28;20072;-48
2022/09/16 12:41:48;;;;;;;11.73;7.32;;;18.50;99.90;;;;;;5050938;28;20517;-48
2022/09/16 12:44:52;;;;;;;13.60;6.82;;;18.60;99.90;;;;;;5048946;28;20072;-48
2022/09/16 12:47:48;;;;;;;8.77;6.22;;;18.50;99.90;;;;;;5049816;28;20111;-49
2022/09/16 12:51:02;;;;;;;9.70;5.97;;;18.30;99.90;;;;;;5051197;28;20049;-49
2022/09/16 12:53:50;;;;;;;10.52;5.85;;;18.20;99.90;;;;;;5015351;28;20087;-49
2022/09/16 12:56:38;;;;;;;6.30;4.95;;;18.30;99.90;;;;;;5046601;28;20057;-48
2022/09/16 12:59:34;;;;;;;6.25;4.32;;;18.40;99.90;;;;;;5051461;28;20068;-48
2022/09/16 13:02:22;;;;;;;4.55;3.35;;;18.80;99.90;;;;;;5045326;28;20077;-48
2022/09/16 13:04:53;;;;;;;4.60;3.22;;;19.00;99.90;;;;;;5050847;28;20493;-51
2022/09/16 13:07:28;;;;;;;5.95;4.10;;;18.90;99.90;;;;;;5050682;28;20067;-48
2022/09/16 13:10:20;;;;;;;6.45;3.10;;;18.60;99.90;;;;;;5046922;28;20497;-46
2022/09/16 13:13:15;;;;;;;3.97;2.70;;;18.60;99.90;;;;;;5051132;28;20041;-49
2022/09/16 13:15:43;;;;;;;5.45;3.20;;;18.90;99.90;;;;;;5050630;28;20045;-48
2022/09/16 13:18:13;;;;;;;4.53;2.88;;;19.20;99.90;;;;;;5045864;28;20065;-48
2022/09/16 13:20:47;;;;;;;4.03;2.75;;;19.10;99.90;;;;;;5051348;28;20394;-48
2022/09/16 13:23:23;;;;;;;4.10;2.70;;;19.20;99.90;;;;;;5050091;28;20041;-47
2022/09/16 13:26:07;;;;;;;5.53;2.35;;;18.80;99.90;;;;;;5046517;28;20736;-48
2022/09/16 13:28:37;;;;;;;9.77;2.72;;;17.50;99.90;;;;;;5043125;28;20128;-48